sensor_id;sensor_type;location;lat;lon;timestamp;P1;durP1;ratioP1;P2;durP2;ratioP2
40284;SDS011;25997;50.214;19.354;2023-02-26T00:00:52;10.30;;;7.03;;
40284;SDS011;25997;50.214;19.354;2023-02-26T00:03:55;13.93;;;9.35;;
40284;SDS011;25997;50.214;19.354;2023-02-26T00:06:58;18.55;;;12.00;;
40284;SDS011;25997;50.214;19.354;2023-02-26T00:10:02;12.88;;;7.95;;
40284;SDS011;25997;50.214;19.354;2023-02-26T00:13:07;15.75;;;9.02;;
40284;SDS011;25997;50.214;19.354;2023-02-26T00:16:12;12.77;;;8.90;;
40284;SDS011;25997;50.214;19.354;2023-02-26T00:19:24;9.80;;;7.53;;
40284;SDS011;25997;50.214;19.354;2023-02-26T00:22:27;14.02;;;9.13;;
40284;SDS011;25997;50.214;19.354;2023-02-26T00:25:32;7.43;;;6.25;;
40284;SDS011;25997;50.214;19.354;2023-02-26T00:28:35;8.55;;;6.03;;
40284;SDS011;25997;50.214;19.354;2023-02-26T00:31:38;8.02;;;6.28;;
40284;SDS011;25997;50.214;19.354;2023-02-26T00:34:42;10.18;;;7.00;;
40284;SDS011;25997;50.214;19.354;2023-02-26T00:37:52;11.38;;;8.18;;
40284;SDS011;25997;50.214;19.354;2023-02-26T00:41:01;10.60;;;7.25;;
40284;SDS011;25997;50.214;19.354;2023-02-26T00:44:04;8.55;;;5.55;;
40284;SDS011;25997;50.214;19.354;2023-02-26T00:47:07;8.70;;;5.65;;
40284;SDS011;25997;50.214;19.354;2023-02-26T00:50:19;8.70;;;6.40;;
40284;SDS011;25997;50.214;19.354;2023-02-26T00:53:24;8.18;;;5.45;;
40284;SDS011;25997;50.214;19.354;2023-02-26T00:56:34;11.18;;;6.03;;
40284;SDS011;25997;50.214;19.354;2023-02-26T00:59:37;7.57;;;5.13;;
40284;SDS011;25997;50.214;19.354;2023-02-26T01:02:40;8.77;;;5.13;;
40284;SDS011;25997;50.214;19.354;2023-02-26T01:05:43;8.50;;;5.40;;
40284;SDS011;25997;50.214;19.354;2023-02-26T01:08:47;6.40;;;5.13;;
40284;SDS011;25997;50.214;19.354;2023-02-26T01:11:58;8.18;;;5.20;;
40284;SDS011;25997;50.214;19.354;2023-02-26T01:15:02;7.40;;;4.90;;
40284;SDS011;25997;50.214;19.354;2023-02-26T01:18:08;7.75;;;4.68;;
40284;SDS011;25997;50.214;19.354;2023-02-26T01:21:16;6.75;;;5.32;;
40284;SDS011;25997;50.214;19.354;2023-02-26T01:24:27;8.52;;;5.70;;
40284;SDS011;25997;50.214;19.354;2023-02-26T01:27:33;8.75;;;6.70;;
40284;SDS011;25997;50.214;19.354;2023-02-26T01:30:36;7.53;;;4.75;;
40284;SDS011;25997;50.214;19.354;2023-02-26T01:33:40;8.85;;;5.25;;
40284;SDS011;25997;50.214;19.354;2023-02-26T01:36:51;8.35;;;5.35;;
40284;SDS011;25997;50.214;19.354;2023-02-26T01:40:02;6.63;;;4.82;;
40284;SDS011;25997;50.214;19.354;2023-02-26T01:43:26;8.55;;;5.18;;
40284;SDS011;25997;50.214;19.354;2023-02-26T01:46:36;8.35;;;5.28;;
40284;SDS011;25997;50.214;19.354;2023-02-26T01:49:46;7.40;;;5.28;;
40284;SDS011;25997;50.214;19.354;2023-02-26T01:56:20;7.93;;;5.43;;
40284;SDS011;25997;50.214;19.354;2023-02-26T01:59:24;7.28;;;5.68;;
40284;SDS011;25997;50.214;19.354;2023-02-26T02:02:27;5.45;;;4.15;;
40284;SDS011;25997;50.214;19.354;2023-02-26T02:05:30;5.20;;;3.80;;
40284;SDS011;25997;50.214;19.354;2023-02-26T02:08:35;7.88;;;4.85;;
40284;SDS011;25997;50.214;19.354;2023-02-26T02:11:39;5.88;;;4.38;;
40284;SDS011;25997;50.214;19.354;2023-02-26T02:14:58;6.80;;;4.10;;
40284;SDS011;25997;50.214;19.354;2023-02-26T02:18:11;6.43;;;4.30;;
40284;SDS011;25997;50.214;19.354;2023-02-26T02:21:30;6.60;;;3.83;;
40284;SDS011;25997;50.214;19.354;2023-02-26T02:24:57;4.85;;;3.25;;
40284;SDS011;25997;50.214;19.354;2023-02-26T02:28:15;5.47;;;3.20;;
40284;SDS011;25997;50.214;19.354;2023-02-26T02:31:33;4.38;;;3.08;;
40284;SDS011;25997;50.214;19.354;2023-02-26T02:34:44;4.38;;;3.13;;
40284;SDS011;25997;50.214;19.354;2023-02-26T02:37:51;6.75;;;4.20;;
40284;SDS011;25997;50.214;19.354;2023-02-26T02:41:01;5.07;;;3.90;;
40284;SDS011;25997;50.214;19.354;2023-02-26T02:44:07;6.00;;;3.47;;
40284;SDS011;25997;50.214;19.354;2023-02-26T02:47:14;5.75;;;3.50;;
40284;SDS011;25997;50.214;19.354;2023-02-26T02:50:20;7.07;;;5.05;;
40284;SDS011;25997;50.214;19.354;2023-02-26T02:53:29;9.15;;;4.95;;
40284;SDS011;25997;50.214;19.354;2023-02-26T02:56:38;5.22;;;3.63;;
40284;SDS011;25997;50.214;19.354;2023-02-26T02:59:44;3.97;;;2.45;;
40284;SDS011;25997;50.214;19.354;2023-02-26T03:02:51;4.47;;;2.90;;
40284;SDS011;25997;50.214;19.354;2023-02-26T03:06:01;4.90;;;3.05;;
40284;SDS011;25997;50.214;19.354;2023-02-26T03:09:05;4.03;;;2.70;;
40284;SDS011;25997;50.214;19.354;2023-02-26T03:12:09;4.82;;;3.22;;
40284;SDS011;25997;50.214;19.354;2023-02-26T03:15:12;4.28;;;3.17;;
40284;SDS011;25997;50.214;19.354;2023-02-26T03:18:20;4.93;;;2.75;;
40284;SDS011;25997;50.214;19.354;2023-02-26T03:21:32;4.75;;;2.50;;
40284;SDS011;25997;50.214;19.354;2023-02-26T03:24:44;4.30;;;2.97;;
40284;SDS011;25997;50.214;19.354;2023-02-26T03:27:52;4.13;;;2.58;;
40284;SDS011;25997;50.214;19.354;2023-02-26T03:31:01;3.75;;;2.42;;
40284;SDS011;25997;50.214;19.354;2023-02-26T03:34:12;5.35;;;2.95;;
40284;SDS011;25997;50.214;19.354;2023-02-26T03:37:20;5.80;;;4.07;;
40284;SDS011;25997;50.214;19.354;2023-02-26T03:40:26;9.27;;;4.50;;
40284;SDS011;25997;50.214;19.354;2023-02-26T03:43:33;4.88;;;3.97;;
40284;SDS011;25997;50.214;19.354;2023-02-26T03:46:43;9.10;;;4.63;;
40284;SDS011;25997;50.214;19.354;2023-02-26T03:49:54;10.88;;;4.75;;
40284;SDS011;25997;50.214;19.354;2023-02-26T03:53:01;9.05;;;4.55;;
40284;SDS011;25997;50.214;19.354;2023-02-26T03:56:16;4.35;;;2.92;;
40284;SDS011;25997;50.214;19.354;2023-02-26T03:59:42;4.15;;;2.83;;
40284;SDS011;25997;50.214;19.354;2023-02-26T04:03:01;6.63;;;3.65;;
40284;SDS011;25997;50.214;19.354;2023-02-26T04:06:10;6.45;;;4.43;;
40284;SDS011;25997;50.214;19.354;2023-02-26T04:09:13;7.47;;;4.72;;
40284;SDS011;25997;50.214;19.354;2023-02-26T04:12:19;9.30;;;5.20;;
40284;SDS011;25997;50.214;19.354;2023-02-26T04:15:24;6.63;;;3.67;;
40284;SDS011;25997;50.214;19.354;2023-02-26T04:18:27;4.60;;;3.60;;
40284;SDS011;25997;50.214;19.354;2023-02-26T04:21:31;6.47;;;4.45;;
40284;SDS011;25997;50.214;19.354;2023-02-26T04:24:34;7.65;;;3.30;;
40284;SDS011;25997;50.214;19.354;2023-02-26T04:27:37;7.50;;;4.38;;
40284;SDS011;25997;50.214;19.354;2023-02-26T04:30:40;9.70;;;5.75;;
40284;SDS011;25997;50.214;19.354;2023-02-26T04:33:45;5.97;;;3.22;;
40284;SDS011;25997;50.214;19.354;2023-02-26T04:36:50;5.85;;;3.17;;
40284;SDS011;25997;50.214;19.354;2023-02-26T04:39:53;5.30;;;3.15;;
40284;SDS011;25997;50.214;19.354;2023-02-26T04:42:56;5.57;;;3.20;;
40284;SDS011;25997;50.214;19.354;2023-02-26T04:46:01;6.68;;;4.03;;
40284;SDS011;25997;50.214;19.354;2023-02-26T04:49:04;6.45;;;4.05;;
40284;SDS011;25997;50.214;19.354;2023-02-26T04:52:09;8.15;;;4.40;;
40284;SDS011;25997;50.214;19.354;2023-02-26T04:55:11;7.15;;;4.75;;
40284;SDS011;25997;50.214;19.354;2023-02-26T04:58:14;6.80;;;4.43;;
40284;SDS011;25997;50.214;19.354;2023-02-26T05:01:17;4.90;;;3.30;;
40284;SDS011;25997;50.214;19.354;2023-02-26T05:04:20;7.88;;;3.97;;
40284;SDS011;25997;50.214;19.354;2023-02-26T05:07:26;6.97;;;4.18;;
40284;SDS011;25997;50.214;19.354;2023-02-26T05:10:29;6.63;;;3.70;;
40284;SDS011;25997;50.214;19.354;2023-02-26T05:13:31;9.18;;;4.68;;
40284;SDS011;25997;50.214;19.354;2023-02-26T05:16:35;6.65;;;4.43;;
40284;SDS011;25997;50.214;19.354;2023-02-26T05:19:38;10.63;;;4.60;;
40284;SDS011;25997;50.214;19.354;2023-02-26T05:22:41;7.15;;;4.32;;
40284;SDS011;25997;50.214;19.354;2023-02-26T05:25:44;7.65;;;3.85;;
40284;SDS011;25997;50.214;19.354;2023-02-26T05:28:48;6.20;;;4.07;;
40284;SDS011;25997;50.214;19.354;2023-02-26T05:31:50;8.10;;;4.65;;
40284;SDS011;25997;50.214;19.354;2023-02-26T05:34:53;7.43;;;4.35;;
40284;SDS011;25997;50.214;19.354;2023-02-26T05:37:57;7.20;;;4.28;;
40284;SDS011;25997;50.214;19.354;2023-02-26T05:40:59;6.07;;;3.75;;
40284;SDS011;25997;50.214;19.354;2023-02-26T05:44:02;8.82;;;5.35;;
40284;SDS011;25997;50.214;19.354;2023-02-26T05:47:04;7.20;;;4.90;;
40284;SDS011;25997;50.214;19.354;2023-02-26T05:50:07;6.90;;;4.30;;
40284;SDS011;25997;50.214;19.354;2023-02-26T05:53:12;7.35;;;4.22;;
40284;SDS011;25997;50.214;19.354;2023-02-26T05:56:15;8.80;;;5.03;;
40284;SDS011;25997;50.214;19.354;2023-02-26T05:59:17;8.05;;;4.70;;
40284;SDS011;25997;50.214;19.354;2023-02-26T06:02:20;7.60;;;5.07;;
40284;SDS011;25997;50.214;19.354;2023-02-26T06:05:23;17.27;;;11.52;;
40284;SDS011;25997;50.214;19.354;2023-02-26T06:08:27;23.40;;;16.13;;
40284;SDS011;25997;50.214;19.354;2023-02-26T06:11:29;16.10;;;8.40;;
40284;SDS011;25997;50.214;19.354;2023-02-26T06:14:32;31.65;;;20.58;;
40284;SDS011;25997;50.214;19.354;2023-02-26T06:17:35;31.02;;;20.85;;
40284;SDS011;25997;50.214;19.354;2023-02-26T06:20:38;35.28;;;25.23;;
40284;SDS011;25997;50.214;19.354;2023-02-26T06:23:42;11.50;;;7.60;;
40284;SDS011;25997;50.214;19.354;2023-02-26T06:26:45;14.02;;;9.25;;
40284;SDS011;25997;50.214;19.354;2023-02-26T06:29:47;14.43;;;9.27;;
40284;SDS011;25997;50.214;19.354;2023-02-26T06:32:50;9.15;;;6.45;;
40284;SDS011;25997;50.214;19.354;2023-02-26T06:35:52;17.73;;;11.27;;
40284;SDS011;25997;50.214;19.354;2023-02-26T06:38:58;16.88;;;13.20;;
40284;SDS011;25997;50.214;19.354;2023-02-26T06:42:01;12.23;;;8.23;;
40284;SDS011;25997;50.214;19.354;2023-02-26T06:45:05;12.10;;;7.78;;
40284;SDS011;25997;50.214;19.354;2023-02-26T06:48:08;15.02;;;10.55;;
40284;SDS011;25997;50.214;19.354;2023-02-26T06:51:10;19.33;;;14.13;;
40284;SDS011;25997;50.214;19.354;2023-02-26T06:54:14;20.60;;;11.85;;
40284;SDS011;25997;50.214;19.354;2023-02-26T06:57:17;11.70;;;6.43;;
40284;SDS011;25997;50.214;19.354;2023-02-26T07:00:20;14.93;;;10.05;;
40284;SDS011;25997;50.214;19.354;2023-02-26T07:03:23;12.13;;;7.93;;
40284;SDS011;25997;50.214;19.354;2023-02-26T07:06:26;27.98;;;20.23;;
40284;SDS011;25997;50.214;19.354;2023-02-26T07:09:29;13.05;;;8.68;;
40284;SDS011;25997;50.214;19.354;2023-02-26T07:12:32;9.98;;;6.63;;
40284;SDS011;25997;50.214;19.354;2023-02-26T07:15:34;11.95;;;7.68;;
40284;SDS011;25997;50.214;19.354;2023-02-26T07:18:37;21.20;;;11.20;;
40284;SDS011;25997;50.214;19.354;2023-02-26T07:21:39;11.43;;;7.97;;
40284;SDS011;25997;50.214;19.354;2023-02-26T07:24:43;18.15;;;9.02;;
40284;SDS011;25997;50.214;19.354;2023-02-26T07:27:46;16.05;;;10.02;;
40284;SDS011;25997;50.214;19.354;2023-02-26T07:30:49;8.07;;;4.45;;
40284;SDS011;25997;50.214;19.354;2023-02-26T07:33:51;12.50;;;7.35;;
40284;SDS011;25997;50.214;19.354;2023-02-26T07:36:54;12.48;;;7.25;;
40284;SDS011;25997;50.214;19.354;2023-02-26T07:39:58;7.82;;;4.82;;
40284;SDS011;25997;50.214;19.354;2023-02-26T07:43:00;30.75;;;16.08;;
40284;SDS011;25997;50.214;19.354;2023-02-26T07:46:03;11.68;;;7.03;;
40284;SDS011;25997;50.214;19.354;2023-02-26T07:49:05;6.55;;;5.15;;
40284;SDS011;25997;50.214;19.354;2023-02-26T07:52:09;5.75;;;3.47;;
40284;SDS011;25997;50.214;19.354;2023-02-26T07:55:13;11.45;;;5.75;;
40284;SDS011;25997;50.214;19.354;2023-02-26T07:58:16;10.27;;;5.20;;
40284;SDS011;25997;50.214;19.354;2023-02-26T08:01:19;17.48;;;10.55;;
40284;SDS011;25997;50.214;19.354;2023-02-26T08:04:21;6.97;;;4.47;;
40284;SDS011;25997;50.214;19.354;2023-02-26T08:07:24;16.98;;;11.70;;
40284;SDS011;25997;50.214;19.354;2023-02-26T08:10:28;19.63;;;10.13;;
40284;SDS011;25997;50.214;19.354;2023-02-26T08:13:31;6.93;;;4.20;;
40284;SDS011;25997;50.214;19.354;2023-02-26T08:16:33;23.02;;;14.55;;
40284;SDS011;25997;50.214;19.354;2023-02-26T08:19:36;11.02;;;6.28;;
40284;SDS011;25997;50.214;19.354;2023-02-26T08:22:38;14.00;;;8.63;;
40284;SDS011;25997;50.214;19.354;2023-02-26T08:25:43;17.88;;;11.50;;
40284;SDS011;25997;50.214;19.354;2023-02-26T08:28:46;6.05;;;3.90;;
40284;SDS011;25997;50.214;19.354;2023-02-26T08:31:48;13.70;;;7.40;;
40284;SDS011;25997;50.214;19.354;2023-02-26T08:34:51;49.20;;;23.45;;
40284;SDS011;25997;50.214;19.354;2023-02-26T08:37:53;13.43;;;7.53;;
40284;SDS011;25997;50.214;19.354;2023-02-26T08:40:58;9.00;;;5.57;;
40284;SDS011;25997;50.214;19.354;2023-02-26T08:44:01;10.93;;;4.57;;
40284;SDS011;25997;50.214;19.354;2023-02-26T08:47:04;18.08;;;11.27;;
40284;SDS011;25997;50.214;19.354;2023-02-26T08:50:07;20.10;;;12.05;;
40284;SDS011;25997;50.214;19.354;2023-02-26T08:53:10;12.38;;;8.57;;
40284;SDS011;25997;50.214;19.354;2023-02-26T08:56:14;9.55;;;6.88;;
40284;SDS011;25997;50.214;19.354;2023-02-26T08:59:17;13.40;;;9.18;;
40284;SDS011;25997;50.214;19.354;2023-02-26T09:02:20;25.13;;;15.82;;
40284;SDS011;25997;50.214;19.354;2023-02-26T09:05:22;24.55;;;14.73;;
40284;SDS011;25997;50.214;19.354;2023-02-26T09:08:25;16.13;;;10.60;;
40284;SDS011;25997;50.214;19.354;2023-02-26T09:11:29;11.52;;;7.60;;
40284;SDS011;25997;50.214;19.354;2023-02-26T09:14:32;16.45;;;8.93;;
40284;SDS011;25997;50.214;19.354;2023-02-26T09:17:34;6.70;;;4.40;;
40284;SDS011;25997;50.214;19.354;2023-02-26T09:20:37;8.15;;;4.72;;
40284;SDS011;25997;50.214;19.354;2023-02-26T09:23:39;8.38;;;4.43;;
40284;SDS011;25997;50.214;19.354;2023-02-26T09:26:43;16.92;;;8.77;;
40284;SDS011;25997;50.214;19.354;2023-02-26T09:29:46;10.98;;;6.63;;
40284;SDS011;25997;50.214;19.354;2023-02-26T09:32:48;8.45;;;5.30;;
40284;SDS011;25997;50.214;19.354;2023-02-26T09:35:51;16.35;;;8.77;;
40284;SDS011;25997;50.214;19.354;2023-02-26T09:38:54;13.52;;;8.27;;
40284;SDS011;25997;50.214;19.354;2023-02-26T09:41:58;11.10;;;6.35;;
40284;SDS011;25997;50.214;19.354;2023-02-26T09:45:09;14.25;;;7.32;;
40284;SDS011;25997;50.214;19.354;2023-02-26T09:48:20;30.23;;;16.67;;
40284;SDS011;25997;50.214;19.354;2023-02-26T09:51:25;41.58;;;23.98;;
40284;SDS011;25997;50.214;19.354;2023-02-26T09:54:28;22.25;;;11.52;;
40284;SDS011;25997;50.214;19.354;2023-02-26T09:57:36;101.78;;;52.50;;
40284;SDS011;25997;50.214;19.354;2023-02-26T10:00:45;43.90;;;25.38;;
40284;SDS011;25997;50.214;19.354;2023-02-26T10:03:54;11.63;;;8.68;;
40284;SDS011;25997;50.214;19.354;2023-02-26T10:07:08;15.32;;;10.18;;
40284;SDS011;25997;50.214;19.354;2023-02-26T10:10:21;34.60;;;19.63;;
40284;SDS011;25997;50.214;19.354;2023-02-26T10:13:36;10.48;;;6.53;;
40284;SDS011;25997;50.214;19.354;2023-02-26T10:16:44;11.43;;;7.40;;
40284;SDS011;25997;50.214;19.354;2023-02-26T10:19:51;14.07;;;8.13;;
40284;SDS011;25997;50.214;19.354;2023-02-26T10:23:02;8.68;;;5.60;;
40284;SDS011;25997;50.214;19.354;2023-02-26T10:26:10;7.90;;;4.75;;
40284;SDS011;25997;50.214;19.354;2023-02-26T10:29:18;10.73;;;5.07;;
40284;SDS011;25997;50.214;19.354;2023-02-26T10:32:29;7.63;;;5.60;;
40284;SDS011;25997;50.214;19.354;2023-02-26T10:35:43;5.15;;;2.90;;
40284;SDS011;25997;50.214;19.354;2023-02-26T10:38:53;8.73;;;5.97;;
40284;SDS011;25997;50.214;19.354;2023-02-26T10:42:03;9.20;;;5.57;;
40284;SDS011;25997;50.214;19.354;2023-02-26T10:45:23;6.85;;;4.65;;
40284;SDS011;25997;50.214;19.354;2023-02-26T10:48:41;6.17;;;3.70;;
40284;SDS011;25997;50.214;19.354;2023-02-26T10:51:55;5.45;;;3.92;;
40284;SDS011;25997;50.214;19.354;2023-02-26T10:58:36;8.00;;;5.18;;
40284;SDS011;25997;50.214;19.354;2023-02-26T11:01:43;16.92;;;8.57;;
40284;SDS011;25997;50.214;19.354;2023-02-26T11:04:47;8.18;;;5.32;;
40284;SDS011;25997;50.214;19.354;2023-02-26T11:07:51;12.15;;;7.50;;
40284;SDS011;25997;50.214;19.354;2023-02-26T11:10:57;9.50;;;6.53;;
40284;SDS011;25997;50.214;19.354;2023-02-26T11:14:01;11.55;;;8.88;;
40284;SDS011;25997;50.214;19.354;2023-02-26T11:17:06;11.15;;;8.00;;
40284;SDS011;25997;50.214;19.354;2023-02-26T11:23:19;7.47;;;5.38;;
40284;SDS011;25997;50.214;19.354;2023-02-26T11:26:25;5.85;;;3.15;;
40284;SDS011;25997;50.214;19.354;2023-02-26T11:29:34;7.00;;;5.38;;
40284;SDS011;25997;50.214;19.354;2023-02-26T11:32:40;5.57;;;4.18;;
40284;SDS011;25997;50.214;19.354;2023-02-26T11:35:45;7.20;;;4.85;;
40284;SDS011;25997;50.214;19.354;2023-02-26T11:38:51;5.97;;;4.35;;
40284;SDS011;25997;50.214;19.354;2023-02-26T11:41:56;5.80;;;4.30;;
40284;SDS011;25997;50.214;19.354;2023-02-26T11:45:00;7.07;;;5.10;;
40284;SDS011;25997;50.214;19.354;2023-02-26T11:48:05;9.95;;;6.55;;
40284;SDS011;25997;50.214;19.354;2023-02-26T11:51:12;10.35;;;6.90;;
40284;SDS011;25997;50.214;19.354;2023-02-26T11:54:19;13.98;;;9.38;;
40284;SDS011;25997;50.214;19.354;2023-02-26T11:57:24;7.60;;;3.90;;
40284;SDS011;25997;50.214;19.354;2023-02-26T12:00:29;9.25;;;6.20;;
40284;SDS011;25997;50.214;19.354;2023-02-26T12:03:35;5.07;;;3.15;;
40284;SDS011;25997;50.214;19.354;2023-02-26T12:06:40;8.20;;;5.05;;
40284;SDS011;25997;50.214;19.354;2023-02-26T12:09:43;7.22;;;5.53;;
40284;SDS011;25997;50.214;19.354;2023-02-26T12:12:50;5.47;;;3.75;;
40284;SDS011;25997;50.214;19.354;2023-02-26T12:16:04;7.90;;;5.53;;
40284;SDS011;25997;50.214;19.354;2023-02-26T12:19:14;6.68;;;4.90;;
40284;SDS011;25997;50.214;19.354;2023-02-26T12:22:26;4.78;;;3.55;;
40284;SDS011;25997;50.214;19.354;2023-02-26T12:29:20;7.13;;;3.97;;
40284;SDS011;25997;50.214;19.354;2023-02-26T12:36:17;6.18;;;3.38;;
40284;SDS011;25997;50.214;19.354;2023-02-26T12:39:34;7.82;;;5.03;;
40284;SDS011;25997;50.214;19.354;2023-02-26T12:42:48;6.13;;;3.83;;
40284;SDS011;25997;50.214;19.354;2023-02-26T12:46:01;7.13;;;4.20;;
40284;SDS011;25997;50.214;19.354;2023-02-26T12:52:47;9.98;;;5.65;;
40284;SDS011;25997;50.214;19.354;2023-02-26T12:56:00;5.47;;;3.40;;
40284;SDS011;25997;50.214;19.354;2023-02-26T12:59:17;5.70;;;3.97;;
40284;SDS011;25997;50.214;19.354;2023-02-26T13:03:03;5.70;;;3.55;;
40284;SDS011;25997;50.214;19.354;2023-02-26T13:06:33;5.18;;;2.92;;
40284;SDS011;25997;50.214;19.354;2023-02-26T13:09:51;6.57;;;4.07;;
40284;SDS011;25997;50.214;19.354;2023-02-26T13:13:06;9.13;;;6.68;;
40284;SDS011;25997;50.214;19.354;2023-02-26T13:16:20;7.55;;;5.40;;
40284;SDS011;25997;50.214;19.354;2023-02-26T13:19:34;9.85;;;7.22;;
40284;SDS011;25997;50.214;19.354;2023-02-26T13:22:44;8.05;;;4.85;;
40284;SDS011;25997;50.214;19.354;2023-02-26T13:25:52;8.63;;;6.20;;
40284;SDS011;25997;50.214;19.354;2023-02-26T13:28:58;6.40;;;4.50;;
40284;SDS011;25997;50.214;19.354;2023-02-26T13:32:05;13.23;;;8.68;;
40284;SDS011;25997;50.214;19.354;2023-02-26T13:35:16;7.00;;;4.53;;
40284;SDS011;25997;50.214;19.354;2023-02-26T13:38:23;16.50;;;9.88;;
40284;SDS011;25997;50.214;19.354;2023-02-26T13:41:37;16.08;;;9.63;;
40284;SDS011;25997;50.214;19.354;2023-02-26T13:44:50;16.88;;;9.65;;
40284;SDS011;25997;50.214;19.354;2023-02-26T13:48:06;23.55;;;14.73;;
40284;SDS011;25997;50.214;19.354;2023-02-26T13:54:41;9.82;;;7.75;;
40284;SDS011;25997;50.214;19.354;2023-02-26T13:57:49;10.43;;;7.65;;
40284;SDS011;25997;50.214;19.354;2023-02-26T14:00:57;11.00;;;8.18;;
40284;SDS011;25997;50.214;19.354;2023-02-26T14:04:21;11.65;;;7.55;;
40284;SDS011;25997;50.214;19.354;2023-02-26T14:10:56;16.13;;;8.57;;
40284;SDS011;25997;50.214;19.354;2023-02-26T14:14:12;8.63;;;5.85;;
40284;SDS011;25997;50.214;19.354;2023-02-26T14:17:28;15.15;;;7.72;;
40284;SDS011;25997;50.214;19.354;2023-02-26T14:20:39;20.42;;;10.55;;
40284;SDS011;25997;50.214;19.354;2023-02-26T14:23:41;15.85;;;9.00;;
40284;SDS011;25997;50.214;19.354;2023-02-26T14:26:50;11.57;;;7.03;;
40284;SDS011;25997;50.214;19.354;2023-02-26T14:30:13;19.05;;;11.82;;
40284;SDS011;25997;50.214;19.354;2023-02-26T14:33:25;27.33;;;18.85;;
40284;SDS011;25997;50.214;19.354;2023-02-26T14:36:32;43.60;;;24.48;;
40284;SDS011;25997;50.214;19.354;2023-02-26T14:39:41;33.20;;;22.15;;
40284;SDS011;25997;50.214;19.354;2023-02-26T14:42:48;15.73;;;10.15;;
40284;SDS011;25997;50.214;19.354;2023-02-26T14:45:56;13.50;;;7.70;;
40284;SDS011;25997;50.214;19.354;2023-02-26T14:48:58;31.35;;;18.35;;
40284;SDS011;25997;50.214;19.354;2023-02-26T14:52:08;27.67;;;16.17;;
40284;SDS011;25997;50.214;19.354;2023-02-26T14:55:36;12.52;;;8.60;;
40284;SDS011;25997;50.214;19.354;2023-02-26T14:58:59;16.20;;;9.70;;
40284;SDS011;25997;50.214;19.354;2023-02-26T15:02:20;9.05;;;5.80;;
40284;SDS011;25997;50.214;19.354;2023-02-26T15:05:38;8.02;;;5.25;;
40284;SDS011;25997;50.214;19.354;2023-02-26T15:08:50;9.02;;;7.15;;
40284;SDS011;25997;50.214;19.354;2023-02-26T15:12:09;12.38;;;8.70;;
40284;SDS011;25997;50.214;19.354;2023-02-26T15:15:23;13.70;;;9.40;;
40284;SDS011;25997;50.214;19.354;2023-02-26T15:18:45;11.82;;;9.32;;
40284;SDS011;25997;50.214;19.354;2023-02-26T15:22:00;11.27;;;6.00;;
40284;SDS011;25997;50.214;19.354;2023-02-26T15:25:15;17.23;;;10.65;;
40284;SDS011;25997;50.214;19.354;2023-02-26T15:28:24;9.80;;;6.88;;
40284;SDS011;25997;50.214;19.354;2023-02-26T15:31:30;9.98;;;7.18;;
40284;SDS011;25997;50.214;19.354;2023-02-26T15:34:36;20.75;;;13.13;;
40284;SDS011;25997;50.214;19.354;2023-02-26T15:37:47;16.75;;;10.32;;
40284;SDS011;25997;50.214;19.354;2023-02-26T15:40:52;19.33;;;11.80;;
40284;SDS011;25997;50.214;19.354;2023-02-26T15:43:57;15.40;;;9.30;;
40284;SDS011;25997;50.214;19.354;2023-02-26T15:47:01;19.85;;;11.85;;
40284;SDS011;25997;50.214;19.354;2023-02-26T15:50:08;20.05;;;11.35;;
40284;SDS011;25997;50.214;19.354;2023-02-26T15:53:19;18.17;;;12.15;;
40284;SDS011;25997;50.214;19.354;2023-02-26T15:56:25;21.08;;;13.70;;
40284;SDS011;25997;50.214;19.354;2023-02-26T15:59:31;18.25;;;9.90;;
40284;SDS011;25997;50.214;19.354;2023-02-26T16:02:34;37.83;;;26.55;;
40284;SDS011;25997;50.214;19.354;2023-02-26T16:05:39;20.40;;;13.55;;
40284;SDS011;25997;50.214;19.354;2023-02-26T16:08:43;16.48;;;9.93;;
40284;SDS011;25997;50.214;19.354;2023-02-26T16:11:46;18.30;;;10.25;;
40284;SDS011;25997;50.214;19.354;2023-02-26T16:14:52;27.98;;;19.30;;
40284;SDS011;25997;50.214;19.354;2023-02-26T16:17:58;19.15;;;13.35;;
40284;SDS011;25997;50.214;19.354;2023-02-26T16:21:04;36.40;;;24.38;;
40284;SDS011;25997;50.214;19.354;2023-02-26T16:24:11;15.25;;;10.68;;
40284;SDS011;25997;50.214;19.354;2023-02-26T16:27:17;14.52;;;10.00;;
40284;SDS011;25997;50.214;19.354;2023-02-26T16:30:22;18.02;;;11.18;;
40284;SDS011;25997;50.214;19.354;2023-02-26T16:33:30;16.23;;;10.70;;
40284;SDS011;25997;50.214;19.354;2023-02-26T16:36:38;16.90;;;10.70;;
40284;SDS011;25997;50.214;19.354;2023-02-26T16:39:42;13.32;;;7.97;;
40284;SDS011;25997;50.214;19.354;2023-02-26T16:42:50;18.15;;;11.93;;
40284;SDS011;25997;50.214;19.354;2023-02-26T16:45:55;16.38;;;11.80;;
40284;SDS011;25997;50.214;19.354;2023-02-26T16:49:01;33.33;;;23.77;;
40284;SDS011;25997;50.214;19.354;2023-02-26T16:52:08;13.23;;;8.95;;
40284;SDS011;25997;50.214;19.354;2023-02-26T16:55:16;19.88;;;13.43;;
40284;SDS011;25997;50.214;19.354;2023-02-26T16:58:19;14.43;;;9.10;;
40284;SDS011;25997;50.214;19.354;2023-02-26T17:01:22;12.77;;;8.88;;
40284;SDS011;25997;50.214;19.354;2023-02-26T17:04:26;61.92;;;38.63;;
40284;SDS011;25997;50.214;19.354;2023-02-26T17:07:33;44.65;;;28.83;;
40284;SDS011;25997;50.214;19.354;2023-02-26T17:10:38;25.60;;;18.05;;
40284;SDS011;25997;50.214;19.354;2023-02-26T17:13:45;30.13;;;21.55;;
40284;SDS011;25997;50.214;19.354;2023-02-26T17:17:04;14.65;;;9.18;;
40284;SDS011;25997;50.214;19.354;2023-02-26T17:20:07;13.32;;;9.25;;
40284;SDS011;25997;50.214;19.354;2023-02-26T17:23:12;16.45;;;11.10;;
40284;SDS011;25997;50.214;19.354;2023-02-26T17:26:17;17.05;;;11.95;;
40284;SDS011;25997;50.214;19.354;2023-02-26T17:29:19;13.30;;;10.20;;
40284;SDS011;25997;50.214;19.354;2023-02-26T17:32:26;15.90;;;10.50;;
40284;SDS011;25997;50.214;19.354;2023-02-26T17:35:30;16.10;;;11.25;;
40284;SDS011;25997;50.214;19.354;2023-02-26T17:38:34;35.72;;;22.63;;
40284;SDS011;25997;50.214;19.354;2023-02-26T17:41:37;25.55;;;16.65;;
40284;SDS011;25997;50.214;19.354;2023-02-26T17:44:39;25.70;;;18.63;;
40284;SDS011;25997;50.214;19.354;2023-02-26T17:47:42;22.40;;;15.93;;
40284;SDS011;25997;50.214;19.354;2023-02-26T17:50:47;16.83;;;12.63;;
40284;SDS011;25997;50.214;19.354;2023-02-26T17:53:53;36.40;;;19.45;;
40284;SDS011;25997;50.214;19.354;2023-02-26T17:56:56;22.65;;;14.00;;
40284;SDS011;25997;50.214;19.354;2023-02-26T17:59:59;35.97;;;20.98;;
40284;SDS011;25997;50.214;19.354;2023-02-26T18:03:01;20.13;;;14.77;;
40284;SDS011;25997;50.214;19.354;2023-02-26T18:06:05;21.65;;;15.23;;
40284;SDS011;25997;50.214;19.354;2023-02-26T18:09:10;28.70;;;19.17;;
40284;SDS011;25997;50.214;19.354;2023-02-26T18:12:13;29.70;;;22.60;;
40284;SDS011;25997;50.214;19.354;2023-02-26T18:15:17;27.20;;;21.15;;
40284;SDS011;25997;50.214;19.354;2023-02-26T18:18:20;24.73;;;18.80;;
40284;SDS011;25997;50.214;19.354;2023-02-26T18:21:24;22.65;;;16.73;;
40284;SDS011;25997;50.214;19.354;2023-02-26T18:24:28;20.40;;;12.95;;
40284;SDS011;25997;50.214;19.354;2023-02-26T18:27:31;20.55;;;14.02;;
40284;SDS011;25997;50.214;19.354;2023-02-26T18:30:34;25.70;;;15.68;;
40284;SDS011;25997;50.214;19.354;2023-02-26T18:33:39;37.83;;;23.15;;
40284;SDS011;25997;50.214;19.354;2023-02-26T18:36:43;44.15;;;32.15;;
40284;SDS011;25997;50.214;19.354;2023-02-26T18:39:50;61.13;;;43.13;;
40284;SDS011;25997;50.214;19.354;2023-02-26T18:42:52;46.55;;;32.80;;